Terminal Aerodrome Forecast
Issued by NWS

Home | Current Version | Previous Version | Text Only | Print | Product List | Glossary On
Versions: 1 2 3 4 5 6 7 8 9 10 11 12 13 14 15
000
FTUS43 KBIS 280603 RRA
TAFJMS
TAF
KJMS 280603Z 2806/2906 18005KT 6SM BR SCT250
      TEMPO 2809/2813 2SM BR
     FM281500 22008KT P6SM SCT250
     FM281800 22013KT P6SM SCT250
     FM290200 17006KT P6SM SKC=

USA.gov is the U.S. government's official web portal to all federal, state and local government web resources and services.